createdAt,value
2019-04-27T00:02:33.694Z,101438.72
2019-04-27T00:05:19.396Z,101435.70
2019-04-27T00:08:06.083Z,101434.44
2019-04-27T00:10:40.406Z,101429.52
2019-04-27T00:13:09.637Z,101418.95
2019-04-27T00:15:57.959Z,101410.25
2019-04-27T00:18:56.445Z,101406.39
2019-04-27T00:21:52.922Z,101410.05
2019-04-27T00:24:23.475Z,101409.58
2019-04-27T00:26:50.978Z,101404.80
2019-04-27T00:29:20.200Z,101403.63
2019-04-27T00:31:49.407Z,101400.52
2019-04-27T00:34:18.650Z,101402.33
2019-04-27T00:37:06.984Z,101402.87
2019-04-27T00:39:55.361Z,101400.23
2019-04-27T00:42:24.550Z,101398.12
2019-04-27T00:44:54.229Z,101388.03
2019-04-27T00:47:23.908Z,101390.19
2019-04-27T00:49:52.638Z,101388.90
2019-04-27T00:52:21.503Z,101386.28
2019-04-27T00:54:50.767Z,101378.43
2019-04-27T00:57:39.068Z,101372.33
2019-04-27T01:00:45.390Z,101373.22
2019-04-27T01:03:18.954Z,101380.32
2019-04-27T01:05:48.170Z,101381.64
2019-04-27T01:08:17.378Z,101377.73
2019-04-27T01:10:46.599Z,101372.47
2019-04-27T01:13:15.809Z,101365.92
2019-04-27T01:15:45.019Z,101364.13
2019-04-27T01:18:15.543Z,101365.08
2019-04-27T01:20:43.438Z,101351.48
2019-04-27T01:23:12.637Z,101344.95
2019-04-27T01:25:59.747Z,101345.04
2019-04-27T01:28:32.230Z,101352.19
2019-04-27T01:31:09.744Z,101347.41
2019-04-27T01:33:39.055Z,101345.69
2019-04-27T01:36:08.932Z,101346.23
2019-04-27T01:38:38.992Z,101346.72
2019-04-27T01:41:06.597Z,101343.30
2019-04-27T01:43:35.784Z,101332.77
2019-04-27T01:46:05.021Z,101335.02
2019-04-27T01:48:34.224Z,101331.13
2019-04-27T01:51:03.475Z,101328.56
2019-04-27T01:53:32.702Z,101323.77
2019-04-27T01:56:01.895Z,101326.48
2019-04-27T01:58:31.114Z,101324.30
2019-04-27T02:01:10.896Z,101324.39
2019-04-27T02:03:49.818Z,101331.00
2019-04-27T02:06:20.793Z,101329.30
2019-04-27T02:08:49.298Z,101331.55
2019-04-27T02:11:18.594Z,101334.73
2019-04-27T02:13:46.631Z,101333.46
2019-04-27T02:16:15.882Z,101341.05
2019-04-27T02:18:45.067Z,101329.20
2019-04-27T02:21:14.283Z,101322.24
2019-04-27T02:23:43.475Z,101324.45
2019-04-27T02:26:12.682Z,101325.83
2019-04-27T02:29:08.712Z,101323.69
2019-04-27T02:32:01.153Z,101329.48
2019-04-27T02:34:32.232Z,101332.59
2019-04-27T02:37:02.480Z,101333.45
2019-04-27T02:39:29.804Z,101344.91
2019-04-27T02:41:59.950Z,101340.13
2019-04-27T02:44:30.971Z,101348.06
2019-04-27T02:47:00.534Z,101348.50
2019-04-27T02:49:30.378Z,101340.58
2019-04-27T02:52:05.421Z,101340.98
2019-04-27T02:54:34.597Z,101344.53
2019-04-27T02:57:03.815Z,101344.09
2019-04-27T02:59:33.000Z,101345.42
2019-04-27T03:02:12.449Z,101342.32
2019-04-27T03:04:41.658Z,101335.41
2019-04-27T03:07:11.589Z,101339.37
2019-04-27T03:09:40.123Z,101340.67
2019-04-27T03:12:10.262Z,101342.09
2019-04-27T03:14:50.620Z,101339.98
2019-04-27T03:17:23.540Z,101334.72
2019-04-27T03:20:11.881Z,101327.33
2019-04-27T03:22:43.746Z,101325.52
2019-04-27T03:25:32.729Z,101320.78
2019-04-27T03:28:07.218Z,101321.27
2019-04-27T03:30:36.719Z,101313.95
2019-04-27T03:33:05.734Z,101313.95
2019-04-27T03:35:36.802Z,101308.68
2019-04-27T03:38:06.420Z,101302.53
2019-04-27T03:40:35.848Z,101302.53
2019-04-27T03:43:20.143Z,101305.98
2019-04-27T03:45:51.780Z,101303.40
2019-04-27T03:48:20.368Z,101294.30
2019-04-27T03:51:06.242Z,101299.97
2019-04-27T03:53:46.986Z,101299.13
2019-04-27T03:56:31.254Z,101299.70
2019-04-27T03:59:10.186Z,101299.70
2019-04-27T04:01:39.657Z,101301.00
2019-04-27T04:04:10.119Z,101291.42
2019-04-27T04:06:39.705Z,101289.67
2019-04-27T04:09:06.923Z,101305.56
2019-04-27T04:11:55.251Z,101302.14
2019-04-27T04:14:24.527Z,101302.09
2019-04-27T04:17:01.767Z,101300.75
2019-04-27T04:19:31.546Z,101300.75
2019-04-27T04:21:59.625Z,101293.38
2019-04-27T04:24:30.904Z,101300.30
2019-04-27T04:26:55.899Z,101299.66
2019-04-27T04:29:25.152Z,101299.66
2019-04-27T04:31:54.434Z,101257.88
2019-04-27T04:34:23.588Z,101296.12
2019-04-27T04:36:52.895Z,101291.63
2019-04-27T04:39:22.109Z,101291.63
2019-04-27T04:41:55.479Z,101295.77
2019-04-27T04:44:35.015Z,101296.79
2019-04-27T04:47:14.831Z,101296.25
2019-04-27T04:49:44.106Z,101302.45
2019-04-27T04:52:13.378Z,101300.73
2019-04-27T04:54:42.709Z,101300.34
2019-04-27T04:57:11.958Z,101293.69
2019-04-27T04:59:43.745Z,101295.87
2019-04-27T05:02:10.834Z,101298.03
2019-04-27T05:04:39.628Z,101290.19
2019-04-27T05:07:09.279Z,101290.19
2019-04-27T05:09:39.582Z,101298.77
2019-04-27T05:12:08.916Z,101298.77
2019-04-27T05:14:36.560Z,101309.20
2019-04-27T05:17:05.804Z,101313.44
2019-04-27T05:19:35.104Z,101305.05
2019-04-27T05:22:04.335Z,101305.05
2019-04-27T05:24:33.557Z,101307.45
2019-04-27T05:27:02.780Z,101306.80
2019-04-27T05:29:31.994Z,101304.02
2019-04-27T05:32:01.223Z,101302.91
2019-04-27T05:34:30.447Z,101302.56
2019-04-27T05:37:01.158Z,101299.71
2019-04-27T05:39:30.040Z,101296.58
2019-04-27T05:41:59.694Z,101304.22
2019-04-27T05:44:45.579Z,101291.18
2019-04-27T05:47:28.898Z,101304.14
2019-04-27T05:50:00.136Z,101291.89
2019-04-27T05:52:30.163Z,101295.45
2019-04-27T05:54:59.333Z,101287.42
2019-04-27T05:57:31.240Z,101292.13
2019-04-27T06:00:01.090Z,101292.72
2019-04-27T06:02:30.006Z,101293.38
2019-04-27T06:04:57.237Z,101288.81
2019-04-27T06:07:26.536Z,101289.86
2019-04-27T06:09:55.752Z,101279.59
2019-04-27T06:12:24.988Z,101282.97
2019-04-27T06:14:54.331Z,101279.98
2019-04-27T06:17:23.605Z,101283.33
2019-04-27T06:19:52.851Z,101284.30
2019-04-27T06:22:22.074Z,101273.63
2019-04-27T06:24:54.291Z,101280.61
2019-04-27T06:27:21.108Z,101282.35
2019-04-27T06:29:49.787Z,101279.86
2019-04-27T06:32:19.204Z,101276.36
2019-04-27T06:34:48.896Z,101278.36
2019-04-27T06:37:19.306Z,101278.05
2019-04-27T06:39:46.933Z,101273.38
2019-04-27T06:42:18.781Z,101282.06
2019-04-27T06:44:45.401Z,101279.27
2019-04-27T06:47:14.703Z,101280.87
2019-04-27T06:49:43.947Z,101272.35
2019-04-27T06:52:13.222Z,101267.16
2019-04-27T06:54:42.425Z,101265.13
2019-04-27T06:57:11.647Z,101254.58
2019-04-27T06:59:40.855Z,101257.73
2019-04-27T07:02:12.405Z,101250.30
2019-04-27T07:04:41.629Z,101248.48
2019-04-27T07:07:10.914Z,101254.81
2019-04-27T07:09:40.143Z,101251.30
2019-04-27T07:12:09.453Z,101252.59
2019-04-27T07:14:51.756Z,101251.48
2019-04-27T07:17:08.963Z,101253.23
2019-04-27T07:19:37.140Z,101250.58
2019-04-27T07:22:06.382Z,101245.22
2019-04-27T07:24:35.637Z,101254.47
2019-04-27T07:27:04.904Z,101268.02
2019-04-27T07:29:34.175Z,101253.70
2019-04-27T07:32:03.436Z,101251.80
2019-04-27T07:34:32.764Z,101249.73
2019-04-27T07:37:02.093Z,101248.98
2019-04-27T07:39:31.447Z,101252.14
2019-04-27T07:42:00.737Z,101249.94
2019-04-27T07:44:34.005Z,101236.38
2019-04-27T07:47:30.724Z,101240.73
2019-04-27T07:49:59.575Z,101241.25
2019-04-27T07:52:28.617Z,101234.23
2019-04-27T07:54:56.125Z,101232.28
2019-04-27T07:57:25.374Z,101236.87
2019-04-27T07:59:54.651Z,101234.13
2019-04-27T08:02:23.877Z,101237.02
2019-04-27T08:04:53.154Z,101235.51
2019-04-27T08:07:22.448Z,101229.70
2019-04-27T08:09:51.792Z,101225.41
2019-04-27T08:12:21.106Z,101227.81
2019-04-27T08:14:50.245Z,101212.79
2019-04-27T08:17:19.470Z,101222.84
2019-04-27T08:19:49.592Z,101221.17
2019-04-27T08:22:19.401Z,101227.70
2019-04-27T08:24:49.370Z,101222.57
2019-04-27T08:27:35.467Z,101214.17
2019-04-27T08:30:35.601Z,101218.44
2019-04-27T08:33:04.565Z,101217.48
2019-04-27T08:35:34.037Z,101218.12
2019-04-27T08:38:03.365Z,101211.99
2019-04-27T08:40:32.719Z,101208.22
2019-04-27T08:43:01.963Z,101208.22
2019-04-27T08:45:31.238Z,101204.48
2019-04-27T08:48:00.497Z,101196.16
2019-04-27T08:50:29.779Z,101203.98
2019-04-27T08:53:00.715Z,101200.70
2019-04-27T08:55:29.465Z,101205.33
2019-04-27T08:57:58.731Z,101198.14
2019-04-27T09:00:26.958Z,101189.86
2019-04-27T09:02:56.184Z,101186.20
2019-04-27T09:05:25.790Z,101186.58
2019-04-27T09:08:15.425Z,101185.27
2019-04-27T09:10:52.250Z,101187.10
2019-04-27T09:13:43.283Z,101181.45
2019-04-27T09:16:19.991Z,101180.48
2019-04-27T09:18:49.926Z,101175.89
2019-04-27T09:21:19.202Z,101166.06
2019-04-27T09:23:48.903Z,101169.05
2019-04-27T09:26:18.613Z,101158.87
2019-04-27T09:28:46.472Z,101162.20
2019-04-27T09:31:15.682Z,101155.50
2019-04-27T09:33:44.982Z,101151.69
2019-04-27T09:36:14.195Z,101162.36
2019-04-27T09:38:43.466Z,101151.05
2019-04-27T09:41:12.793Z,101155.73
2019-04-27T09:43:41.987Z,101142.94
2019-04-27T09:46:11.296Z,101147.06
2019-04-27T09:48:40.500Z,101139.13
2019-04-27T09:51:09.745Z,101141.02
2019-04-27T09:53:38.937Z,101139.05
2019-04-27T09:56:08.298Z,101151.86
2019-04-27T09:58:37.526Z,101142.81
2019-04-27T10:01:06.877Z,101137.08
2019-04-27T10:03:36.229Z,101128.13
2019-04-27T10:06:05.891Z,101135.01
2019-04-27T10:08:36.579Z,101131.43
2019-04-27T10:11:05.817Z,101130.28
2019-04-27T10:13:33.244Z,101124.18
2019-04-27T10:16:02.612Z,101131.53
2019-04-27T10:18:31.845Z,101118.75
2019-04-27T10:21:02.168Z,101134.32
2019-04-27T10:23:30.251Z,101119.56
2019-04-27T10:25:59.520Z,101120.72
2019-04-27T10:28:28.767Z,101125.17
2019-04-27T10:30:58.020Z,101108.50
2019-04-27T10:33:27.263Z,101122.72
2019-04-27T10:35:56.663Z,101108.24
2019-04-27T10:38:26.095Z,101106.59
2019-04-27T10:40:55.005Z,101092.62
2019-04-27T10:43:25.810Z,101088.55
2019-04-27T10:45:53.628Z,101081.58
2019-04-27T10:48:22.829Z,101085.05
2019-04-27T10:50:52.185Z,101084.03
2019-04-27T10:53:21.399Z,101077.54
2019-04-27T10:55:50.689Z,101070.47
2019-04-27T10:58:19.924Z,101068.45
2019-04-27T11:00:51.044Z,101061.92
2019-04-27T11:03:39.435Z,101050.88
2019-04-27T11:06:27.235Z,101058.67
2019-04-27T11:08:56.510Z,101056.59
2019-04-27T11:11:25.888Z,101057.07
2019-04-27T11:13:56.931Z,101054.86
2019-04-27T11:16:24.133Z,101053.04
2019-04-27T11:18:53.364Z,101045.05
2019-04-27T11:21:22.601Z,101044.14
2019-04-27T11:23:51.831Z,101044.34
2019-04-27T11:26:21.077Z,101042.50
2019-04-27T11:28:50.361Z,101046.57
2019-04-27T11:31:19.583Z,101042.86
2019-04-27T11:33:49.064Z,101042.76
2019-04-27T11:36:49.659Z,101028.55
2019-04-27T11:39:26.476Z,101047.53
2019-04-27T11:41:55.697Z,101042.59
2019-04-27T11:44:25.835Z,101046.23
2019-04-27T11:46:55.914Z,101048.18
2019-04-27T11:49:25.790Z,101053.28
2019-04-27T11:51:53.350Z,101053.80
2019-04-27T11:54:22.859Z,101045.98
2019-04-27T11:56:52.088Z,101046.95
2019-04-27T11:59:21.393Z,101042.84
2019-04-27T12:01:53.340Z,101068.42
2019-04-27T12:04:20.381Z,101061.48
2019-04-27T12:06:49.667Z,101080.94
2019-04-27T12:09:18.994Z,101081.46
2019-04-27T12:11:48.254Z,101064.34
2019-04-27T12:14:17.510Z,101072.81
2019-04-27T12:16:46.757Z,101065.11
2019-04-27T12:19:16.445Z,101073.39
2019-04-27T12:21:46.391Z,101060.39
2019-04-27T12:24:16.142Z,101064.78
2019-04-27T12:27:11.438Z,101075.92
2019-04-27T12:29:58.458Z,101080.43
2019-04-27T12:32:27.667Z,101084.18
2019-04-27T12:34:56.859Z,101077.30
2019-04-27T12:37:26.796Z,101066.34
2019-04-27T12:39:57.420Z,101077.80
2019-04-27T12:42:26.018Z,101084.91
2019-04-27T12:44:53.790Z,101077.08
2019-04-27T12:47:23.015Z,101080.66
2019-04-27T12:49:52.236Z,101073.68
2019-04-27T12:52:21.440Z,101076.09
2019-04-27T12:54:59.686Z,101077.00
2019-04-27T12:57:38.675Z,101074.88
2019-04-27T13:00:18.648Z,101076.08
2019-04-27T13:02:47.850Z,101076.42
2019-04-27T13:05:17.089Z,101078.30
2019-04-27T13:07:46.294Z,101073.25
2019-04-27T13:10:15.973Z,101073.86
2019-04-27T13:12:46.116Z,101073.48
2019-04-27T13:15:14.363Z,101076.70
2019-04-27T13:17:43.541Z,101077.87
2019-04-27T13:20:12.752Z,101075.55
2019-04-27T13:22:42.064Z,101081.59
2019-04-27T13:25:11.291Z,101075.89
2019-04-27T13:27:40.530Z,101072.05
2019-04-27T13:30:09.760Z,101085.02
2019-04-27T13:32:38.983Z,101100.55
2019-04-27T13:35:08.364Z,101111.39
2019-04-27T13:37:39.306Z,101122.64
2019-04-27T13:40:09.811Z,101125.49
2019-04-27T13:42:42.806Z,101135.91
2019-04-27T13:45:17.144Z,101131.05
2019-04-27T13:47:56.693Z,101131.53
2019-04-27T13:50:35.431Z,101138.23
2019-04-27T13:53:02.981Z,101136.05
2019-04-27T13:55:32.267Z,101134.18
2019-04-27T13:58:01.524Z,101135.58
2019-04-27T14:00:30.733Z,101123.30
2019-04-27T14:02:59.958Z,101125.60
2019-04-27T14:05:29.230Z,101123.34
2019-04-27T14:07:59.177Z,101124.52
2019-04-27T14:10:28.706Z,101118.86
2019-04-27T14:12:57.035Z,101119.88
2019-04-27T14:15:26.276Z,101116.33
2019-04-27T14:17:55.536Z,101121.05
2019-04-27T14:20:24.809Z,101117.81
2019-04-27T14:22:54.551Z,101116.67
2019-04-27T14:25:23.753Z,101110.39
2019-04-27T14:27:55.899Z,101123.37
2019-04-27T14:30:25.142Z,101120.36
2019-04-27T14:32:54.388Z,101119.39
2019-04-27T14:35:23.633Z,101114.17
2019-04-27T14:37:55.556Z,101106.68
2019-04-27T14:40:24.749Z,101107.54
2019-04-27T14:42:54.024Z,101104.68
2019-04-27T14:45:23.219Z,101105.88
2019-04-27T14:47:52.570Z,101104.31
2019-04-27T14:50:21.861Z,101104.53
2019-04-27T14:52:51.084Z,101099.75
2019-04-27T14:55:20.340Z,101103.36
2019-04-27T14:57:50.675Z,101099.51
2019-04-27T15:00:19.800Z,101103.78
2019-04-27T15:02:49.313Z,101098.02
2019-04-27T15:05:18.560Z,101104.77
2019-04-27T15:07:47.841Z,101104.77
2019-04-27T15:10:17.082Z,101102.85
2019-04-27T15:12:46.491Z,101108.97
2019-04-27T15:15:15.827Z,101115.22
2019-04-27T15:17:45.090Z,101115.34
2019-04-27T15:20:22.556Z,101117.70
2019-04-27T15:22:52.498Z,101109.05
2019-04-27T15:25:17.425Z,101117.02
2019-04-27T15:27:50.606Z,101111.31
2019-04-27T15:30:35.133Z,101114.36
2019-04-27T15:33:20.134Z,101113.45
2019-04-27T15:35:54.762Z,101118.42
2019-04-27T15:38:25.816Z,101157.48
2019-04-27T15:41:17.022Z,101162.51
2019-04-27T15:43:48.643Z,101164.09
2019-04-27T15:46:16.302Z,101167.72
2019-04-27T15:48:45.745Z,101183.57
2019-04-27T15:51:18.271Z,101184.61
2019-04-27T15:53:45.981Z,101188.56
2019-04-27T15:56:13.798Z,101189.05
2019-04-27T15:58:43.163Z,101185.44
2019-04-27T16:01:12.576Z,101192.53
2019-04-27T16:03:41.906Z,101193.22
2019-04-27T16:06:12.099Z,101194.17
2019-04-27T16:08:45.069Z,101192.87
2019-04-27T16:11:16.749Z,101197.34
2019-04-27T16:13:39.474Z,101197.34
2019-04-27T16:16:08.704Z,101206.43
2019-04-27T16:18:38.839Z,101203.11
2019-04-27T16:21:10.119Z,101203.11
2019-04-27T16:23:40.308Z,101201.47
2019-04-27T16:26:11.311Z,101201.47
2019-04-27T16:28:34.966Z,101213.81
2019-04-27T16:31:04.226Z,101213.81
2019-04-27T16:33:33.455Z,101218.80
2019-04-27T16:36:06.873Z,101211.06
2019-04-27T16:38:38.831Z,101209.52
2019-04-27T16:41:08.150Z,101207.80
2019-04-27T16:43:38.429Z,101211.76
2019-04-27T16:46:05.693Z,101196.88
2019-04-27T16:48:36.275Z,101192.97
2019-04-27T16:51:04.547Z,101203.56
2019-04-27T16:53:39.431Z,101200.92
2019-04-27T16:56:15.150Z,101202.67
2019-04-27T16:58:39.497Z,101203.94
2019-04-27T17:01:10.538Z,101207.41
2019-04-27T17:03:38.942Z,101210.44
2019-04-27T17:06:07.914Z,101209.80
2019-04-27T17:08:35.760Z,101209.09
2019-04-27T17:11:11.463Z,101200.69
2019-04-27T17:13:34.892Z,101200.69
2019-04-27T17:16:13.225Z,101201.37
2019-04-27T17:18:46.492Z,101183.22
2019-04-27T17:21:20.614Z,101195.38
2019-04-27T17:23:44.922Z,101203.97
2019-04-27T17:26:21.723Z,101212.19
2019-04-27T17:28:50.444Z,101215.97
2019-04-27T17:31:19.671Z,101217.64
2019-04-27T17:33:49.935Z,101218.97
2019-04-27T17:36:19.809Z,101227.47
2019-04-27T17:38:50.928Z,101240.50
2019-04-27T17:41:18.398Z,101246.03
2019-04-27T17:43:48.124Z,101246.03
2019-04-27T17:46:16.184Z,101256.22
2019-04-27T17:48:45.434Z,101259.78
2019-04-27T17:51:14.628Z,101263.66
2019-04-27T17:53:43.838Z,101270.19
2019-04-27T17:56:13.039Z,101271.13
2019-04-27T17:58:42.280Z,101271.13
2019-04-27T18:01:13.949Z,101278.95
2019-04-27T18:03:40.737Z,101281.64
2019-04-27T18:06:09.931Z,101285.66
2019-04-27T18:08:40.339Z,101283.86
2019-04-27T18:11:08.872Z,101279.44
2019-04-27T18:13:38.841Z,101284.09
2019-04-27T18:16:08.993Z,101280.22
2019-04-27T18:18:52.623Z,101267.00
2019-04-27T18:21:28.180Z,101263.52
2019-04-27T18:23:58.610Z,101274.47
2019-04-27T18:26:49.391Z,101279.30
2019-04-27T18:29:14.696Z,101282.02
2019-04-27T18:31:46.455Z,101278.48
2019-04-27T18:34:14.996Z,101279.89
2019-04-27T18:36:43.882Z,101272.25
2019-04-27T18:39:13.765Z,101290.64
2019-04-27T18:41:49.270Z,101290.79
2019-04-27T18:44:11.207Z,101294.45
2019-04-27T18:46:39.524Z,101306.36
2019-04-27T18:49:30.534Z,101321.03
2019-04-27T18:52:28.190Z,101309.61
2019-04-27T18:54:57.492Z,101311.00
2019-04-27T18:57:27.965Z,101313.64
2019-04-27T18:59:55.957Z,101313.59
2019-04-27T19:02:25.200Z,101316.74
2019-04-27T19:04:54.432Z,101324.73
2019-04-27T19:07:23.659Z,101327.45
2019-04-27T19:09:52.846Z,101326.13
2019-04-27T19:12:22.073Z,101326.13
2019-04-27T19:14:51.274Z,101333.16
2019-04-27T19:17:20.484Z,101334.15
2019-04-27T19:19:49.692Z,101342.02
2019-04-27T19:22:18.922Z,101338.97
2019-04-27T19:24:48.293Z,101345.57
2019-04-27T19:27:48.940Z,101343.00
2019-04-27T19:30:40.391Z,101343.00
2019-04-27T19:33:09.612Z,101347.03
2019-04-27T19:35:38.833Z,101341.00
2019-04-27T19:38:08.231Z,101341.00
2019-04-27T19:40:37.994Z,101347.21
2019-04-27T19:43:06.512Z,101347.21
2019-04-27T19:45:35.942Z,101340.66
2019-04-27T19:48:05.190Z,101347.89
2019-04-27T19:50:34.578Z,101347.89
2019-04-27T19:53:03.807Z,101354.48
2019-04-27T19:55:33.084Z,101359.82
2019-04-27T19:58:02.376Z,101363.80
2019-04-27T20:00:41.908Z,101363.80
2019-04-27T20:03:11.357Z,101368.21
2019-04-27T20:05:40.644Z,101363.80
2019-04-27T20:08:13.312Z,101358.13
2019-04-27T20:10:43.292Z,101359.02
2019-04-27T20:13:11.751Z,101363.78
2019-04-27T20:15:42.955Z,101361.61
2019-04-27T20:18:10.895Z,101357.59
2019-04-27T20:20:39.719Z,101360.61
2019-04-27T20:23:08.936Z,101365.89
2019-04-27T20:25:38.262Z,101365.89
2019-04-27T20:28:07.471Z,101365.89
2019-04-27T20:30:36.678Z,101367.20
2019-04-27T20:33:05.972Z,101364.64
2019-04-27T20:35:35.190Z,101369.78
2019-04-27T20:38:04.512Z,101365.48
2019-04-27T20:40:33.893Z,101365.48
2019-04-27T20:43:03.318Z,101380.39
2019-04-27T20:45:32.814Z,101364.05
2019-04-27T20:48:01.834Z,101370.03
2019-04-27T20:50:32.837Z,101379.23
2019-04-27T20:53:01.132Z,101376.08
2019-04-27T20:55:32.214Z,101376.95
2019-04-27T20:58:02.591Z,101379.66
2019-04-27T21:00:28.849Z,101371.75
2019-04-27T21:03:01.865Z,101370.02
2019-04-27T21:05:54.940Z,101377.48
2019-04-27T21:08:24.584Z,101377.48
2019-04-27T21:10:53.842Z,101382.37
2019-04-27T21:13:23.061Z,101375.36
2019-04-27T21:15:52.348Z,101375.36
2019-04-27T21:18:21.819Z,101373.95
2019-04-27T21:20:51.243Z,101378.89
2019-04-27T21:23:21.061Z,101377.62
2019-04-27T21:25:51.279Z,101390.81
2019-04-27T21:28:19.099Z,101387.33
2019-04-27T21:30:47.752Z,101396.16
2019-04-27T21:33:16.994Z,101381.39
2019-04-27T21:35:47.104Z,101395.70
2019-04-27T21:38:16.340Z,101388.80
2019-04-27T21:40:45.631Z,101387.94
2019-04-27T21:43:21.466Z,101404.14
2019-04-27T21:45:51.111Z,101406.67
2019-04-27T21:48:19.006Z,101406.67
2019-04-27T21:50:48.220Z,101409.83
2019-04-27T21:53:42.656Z,101405.53
2019-04-27T21:56:12.594Z,101403.83
2019-04-27T21:58:42.180Z,101403.83
2019-04-27T22:01:31.824Z,101416.89
2019-04-27T22:04:01.087Z,101410.84
2019-04-27T22:06:28.854Z,101422.30
2019-04-27T22:08:58.063Z,101418.81
2019-04-27T22:11:27.383Z,101423.16
2019-04-27T22:13:56.648Z,101426.66
2019-04-27T22:16:26.104Z,101418.83
2019-04-27T22:18:55.376Z,101417.03
2019-04-27T22:21:24.658Z,101427.59
2019-04-27T22:24:11.150Z,101422.38
2019-04-27T22:26:38.889Z,101421.04
2019-04-27T22:29:08.184Z,101432.80
2019-04-27T22:31:37.392Z,101419.72
2019-04-27T22:34:06.604Z,101419.72
2019-04-27T22:36:35.894Z,101426.73
2019-04-27T22:39:17.978Z,101429.77
2019-04-27T22:41:56.800Z,101437.22
2019-04-27T22:44:40.921Z,101427.72
2019-04-27T22:47:11.156Z,101440.84
2019-04-27T22:49:39.627Z,101447.30
2019-04-27T22:52:08.848Z,101446.06
2019-04-27T22:54:38.058Z,101446.06
2019-04-27T22:57:13.507Z,101451.81
2019-04-27T22:59:57.417Z,101451.81
2019-04-27T23:02:33.902Z,101452.70
2019-04-27T23:05:03.119Z,101452.70
2019-04-27T23:07:32.324Z,101449.50
2019-04-27T23:10:01.888Z,101447.71
2019-04-27T23:12:31.704Z,101359.13
2019-04-27T23:14:59.964Z,101447.43
2019-04-27T23:17:46.904Z,101447.43
2019-04-27T23:20:16.101Z,101452.27
2019-04-27T23:22:45.322Z,101451.92
2019-04-27T23:25:14.527Z,101454.03
2019-04-27T23:27:43.823Z,101458.45
2019-04-27T23:30:13.066Z,101463.28
2019-04-27T23:32:44.557Z,101463.28
2019-04-27T23:35:13.781Z,101466.33
2019-04-27T23:37:43.104Z,101466.33
2019-04-27T23:40:12.359Z,101463.01
2019-04-27T23:42:41.788Z,101463.01
2019-04-27T23:45:10.832Z,101462.55
2019-04-27T23:47:40.032Z,101467.83
2019-04-27T23:50:10.809Z,101467.83
2019-04-27T23:52:56.094Z,101483.59
2019-04-27T23:55:27.601Z,101477.00
2019-04-27T23:57:56.876Z,101477.00
